createdAt,value
2023-04-09T00:00:10.164Z,61.40
2023-04-09T00:02:36.719Z,61.50
2023-04-09T00:05:03.286Z,61.50
2023-04-09T00:07:29.764Z,61.60
2023-04-09T00:09:56.279Z,61.50
2023-04-09T00:12:22.758Z,61.50
2023-04-09T00:14:49.242Z,61.40
2023-04-09T00:17:15.727Z,61.50
2023-04-09T00:19:42.225Z,61.30
2023-04-09T00:22:08.690Z,61.30
2023-04-09T00:24:35.182Z,61.30
2023-04-09T00:27:01.652Z,61.40
2023-04-09T00:29:28.130Z,61.30
2023-04-09T00:31:54.632Z,61.40
2023-04-09T00:34:21.126Z,61.30
2023-04-09T00:36:47.592Z,61.40
2023-04-09T00:39:14.073Z,61.10
2023-04-09T00:41:40.525Z,61.20
2023-04-09T00:44:07.013Z,61.20
2023-04-09T00:46:33.496Z,61.30
2023-04-09T00:48:59.970Z,61.40
2023-04-09T00:51:26.471Z,61.40
2023-04-09T00:53:52.954Z,61.30
2023-04-09T00:56:19.444Z,61.30
2023-04-09T00:58:45.908Z,61.40
2023-04-09T01:01:12.382Z,61.20
2023-04-09T01:03:39.035Z,61.30
2023-04-09T01:06:05.534Z,61.40
2023-04-09T01:08:32.013Z,61.20
2023-04-09T01:10:58.489Z,61.10
2023-04-09T01:13:24.947Z,61.20
2023-04-09T01:15:51.398Z,61.10
2023-04-09T01:18:17.868Z,61.00
2023-04-09T01:20:44.351Z,61.00
2023-04-09T01:23:10.798Z,61.00
2023-04-09T01:25:37.261Z,61.10
2023-04-09T01:28:03.734Z,61.00
2023-04-09T01:30:34.255Z,61.00
2023-04-09T01:33:00.742Z,61.00
2023-04-09T01:35:27.225Z,61.00
2023-04-09T01:37:53.704Z,61.10
2023-04-09T01:40:22.212Z,60.90
2023-04-09T01:42:48.681Z,60.90
2023-04-09T01:45:15.143Z,60.90
2023-04-09T01:47:41.673Z,60.80
2023-04-09T01:50:08.184Z,60.90
2023-04-09T01:52:34.668Z,60.80
2023-04-09T01:55:01.164Z,60.80
2023-04-09T01:57:27.646Z,60.70
2023-04-09T01:59:54.115Z,60.90
2023-04-09T02:02:20.721Z,60.70
2023-04-09T02:04:47.326Z,60.70
2023-04-09T02:07:13.798Z,60.70
2023-04-09T02:09:52.403Z,60.70
2023-04-09T02:12:18.867Z,60.80
2023-04-09T02:14:45.331Z,60.80
2023-04-09T02:17:11.798Z,60.90
2023-04-09T02:19:38.262Z,60.70
2023-04-09T02:22:04.745Z,60.60
2023-04-09T02:24:31.220Z,60.50
2023-04-09T02:26:57.703Z,60.60
2023-04-09T02:29:24.191Z,60.60
2023-04-09T02:31:50.672Z,60.80
2023-04-09T02:34:17.150Z,60.60
2023-04-09T02:36:43.646Z,60.50
2023-04-09T02:39:10.134Z,60.50
2023-04-09T02:41:40.233Z,60.40
2023-04-09T02:44:06.690Z,60.40
2023-04-09T02:46:34.298Z,60.50
2023-04-09T02:49:00.766Z,60.30
2023-04-09T02:51:27.243Z,60.50
2023-04-09T02:53:54.807Z,60.30
2023-04-09T02:56:21.291Z,60.60
2023-04-09T02:58:47.757Z,60.40
2023-04-09T03:01:14.295Z,60.50
2023-04-09T03:03:40.932Z,60.30
2023-04-09T03:06:07.454Z,60.30
2023-04-09T03:08:33.938Z,60.30
2023-04-09T03:11:04.263Z,60.20
2023-04-09T03:13:30.757Z,60.10
2023-04-09T03:15:57.247Z,60.10
2023-04-09T03:18:23.754Z,60.10
2023-04-09T03:20:50.237Z,60.10
2023-04-09T03:23:16.743Z,60.10
2023-04-09T03:25:43.239Z,60.10
2023-04-09T03:28:09.735Z,60.10
2023-04-09T03:30:36.238Z,60.00
2023-04-09T03:33:02.731Z,60.00
2023-04-09T03:35:29.278Z,60.00
2023-04-09T03:37:58.297Z,60.00
2023-04-09T03:40:24.811Z,60.00
2023-04-09T03:42:51.289Z,60.10
2023-04-09T03:45:17.774Z,60.00
2023-04-09T03:47:44.292Z,60.00
2023-04-09T03:50:10.809Z,60.00
2023-04-09T03:52:37.285Z,60.00
2023-04-09T03:55:03.745Z,59.90
2023-04-09T03:57:30.233Z,59.90
2023-04-09T03:59:56.681Z,59.90
2023-04-09T04:02:23.307Z,59.70
2023-04-09T04:04:49.983Z,59.70
2023-04-09T04:07:16.514Z,59.70
2023-04-09T04:09:42.996Z,59.60
2023-04-09T04:12:09.489Z,59.90
2023-04-09T04:14:35.957Z,60.40
2023-04-09T04:17:02.433Z,60.40
2023-04-09T04:19:28.899Z,60.30
2023-04-09T04:21:55.408Z,60.70
2023-04-09T04:24:21.916Z,60.60
2023-04-09T04:26:48.370Z,60.80
2023-04-09T04:29:14.842Z,60.80
2023-04-09T04:31:41.345Z,60.80
2023-04-09T04:34:07.862Z,60.40
2023-04-09T04:36:34.344Z,60.40
2023-04-09T04:39:00.812Z,60.30
2023-04-09T04:41:27.266Z,59.90
2023-04-09T04:43:53.761Z,59.70
2023-04-09T04:46:20.296Z,60.00
2023-04-09T04:48:46.852Z,59.70
2023-04-09T04:51:13.312Z,59.70
2023-04-09T04:53:39.789Z,59.50
2023-04-09T04:56:06.260Z,59.50
2023-04-09T04:58:32.760Z,59.50
2023-04-09T05:00:59.242Z,59.30
2023-04-09T05:03:27.476Z,59.50
2023-04-09T05:05:54.217Z,59.50
2023-04-09T05:08:20.740Z,59.40
2023-04-09T05:10:47.230Z,59.30
2023-04-09T05:13:13.721Z,59.10
2023-04-09T05:15:40.192Z,59.00
2023-04-09T05:18:06.667Z,58.60
2023-04-09T05:20:33.165Z,58.30
2023-04-09T05:23:04.373Z,58.50
2023-04-09T05:25:30.845Z,58.70
2023-04-09T05:27:57.344Z,58.90
2023-04-09T05:30:23.834Z,58.90
2023-04-09T05:32:50.404Z,58.60
2023-04-09T05:35:16.911Z,58.70
2023-04-09T05:37:43.380Z,58.70
2023-04-09T05:40:09.865Z,58.50
2023-04-09T05:42:36.328Z,58.50
2023-04-09T05:45:02.822Z,58.60
2023-04-09T05:47:29.293Z,58.40
2023-04-09T05:49:55.822Z,58.40
2023-04-09T05:52:22.397Z,58.30
2023-04-09T05:54:48.902Z,58.20
2023-04-09T05:57:15.396Z,58.30
2023-04-09T05:59:46.437Z,58.00
2023-04-09T06:02:12.992Z,58.10
2023-04-09T06:04:39.535Z,57.80
2023-04-09T06:07:06.049Z,57.70
2023-04-09T06:09:34.414Z,57.50
2023-04-09T06:12:00.888Z,57.50
2023-04-09T06:14:28.430Z,57.30
2023-04-09T06:16:54.890Z,56.90
2023-04-09T06:19:21.392Z,56.90
2023-04-09T06:21:47.848Z,57.00
2023-04-09T06:24:14.329Z,57.10
2023-04-09T06:26:40.806Z,57.80
2023-04-09T06:29:07.294Z,57.30
2023-04-09T06:31:33.806Z,57.30
2023-04-09T06:34:00.308Z,57.50
2023-04-09T06:36:26.792Z,57.30
2023-04-09T06:38:53.303Z,57.50
2023-04-09T06:41:19.780Z,57.60
2023-04-09T06:43:46.280Z,57.60
2023-04-09T06:46:12.779Z,57.60
2023-04-09T06:48:39.281Z,57.70
2023-04-09T06:51:05.757Z,57.70
2023-04-09T06:53:32.266Z,57.70
2023-04-09T06:55:58.787Z,57.80
2023-04-09T06:58:25.264Z,57.70
2023-04-09T07:00:52.454Z,57.70
2023-04-09T07:03:19.076Z,57.80
2023-04-09T07:05:45.634Z,57.80
2023-04-09T07:08:12.134Z,57.60
2023-04-09T07:10:38.609Z,57.80
2023-04-09T07:13:05.087Z,57.60
2023-04-09T07:15:31.568Z,57.70
2023-04-09T07:17:58.145Z,57.80
2023-04-09T07:20:24.646Z,57.70
2023-04-09T07:22:51.115Z,57.70
2023-04-09T07:25:17.622Z,57.80
2023-04-09T07:27:44.094Z,57.90
2023-04-09T07:30:10.596Z,58.00
2023-04-09T07:32:37.153Z,57.70
2023-04-09T07:35:03.699Z,57.80
2023-04-09T07:37:30.159Z,57.90
2023-04-09T07:39:56.677Z,58.00
2023-04-09T07:42:23.152Z,58.00
2023-04-09T07:44:49.641Z,57.80
2023-04-09T07:47:16.116Z,58.00
2023-04-09T07:49:42.603Z,57.90
2023-04-09T07:52:10.512Z,57.90
2023-04-09T07:54:37.007Z,57.80
2023-04-09T07:57:03.494Z,58.00
2023-04-09T07:59:29.980Z,58.00
2023-04-09T08:01:56.560Z,58.10
2023-04-09T08:04:23.318Z,58.10
2023-04-09T08:06:52.533Z,58.20
2023-04-09T08:09:19.026Z,58.00
2023-04-09T08:11:45.517Z,58.10
2023-04-09T08:14:12.017Z,58.00
2023-04-09T08:16:38.513Z,57.90
2023-04-09T08:19:05.030Z,57.80
2023-04-09T08:21:31.515Z,57.90
2023-04-09T08:23:57.972Z,58.00
2023-04-09T08:26:24.449Z,58.00
2023-04-09T08:28:52.741Z,58.00
2023-04-09T08:31:19.385Z,58.10
2023-04-09T08:33:45.905Z,58.00
2023-04-09T08:36:12.399Z,58.20
2023-04-09T08:38:38.894Z,58.20
2023-04-09T08:41:10.539Z,58.20
2023-04-09T08:43:56.075Z,58.20
2023-04-09T08:46:23.556Z,58.20
2023-04-09T08:48:50.206Z,58.20
2023-04-09T08:51:16.817Z,58.20
2023-04-09T08:53:43.313Z,58.20
2023-04-09T08:56:09.801Z,58.20
2023-04-09T08:58:36.266Z,58.30
2023-04-09T09:01:02.783Z,58.20
2023-04-09T09:03:29.356Z,58.10
2023-04-09T09:05:55.910Z,58.30
2023-04-09T09:08:22.394Z,58.30
2023-04-09T09:10:48.924Z,58.30
2023-04-09T09:13:15.396Z,58.20
2023-04-09T09:15:41.887Z,58.20
2023-04-09T09:18:08.625Z,58.10
2023-04-09T09:20:35.179Z,58.10
2023-04-09T09:23:01.677Z,58.20
2023-04-09T09:25:28.175Z,58.20
2023-04-09T09:27:54.772Z,58.20
2023-04-09T09:30:21.334Z,58.10
2023-04-09T09:32:47.881Z,58.10
2023-04-09T09:35:14.420Z,58.20
2023-04-09T09:37:46.570Z,58.20
2023-04-09T09:40:13.047Z,58.20
2023-04-09T09:42:39.553Z,58.10
2023-04-09T09:45:06.051Z,58.10
2023-04-09T09:47:32.551Z,58.10
2023-04-09T09:49:59.042Z,58.20
2023-04-09T09:52:25.504Z,58.20
2023-04-09T09:54:52.566Z,58.20
2023-04-09T09:57:19.063Z,58.20
2023-04-09T09:59:45.530Z,58.10
2023-04-09T10:02:12.073Z,58.10
2023-04-09T10:04:38.625Z,58.10
2023-04-09T10:07:05.137Z,58.10
2023-04-09T10:09:31.601Z,58.10
2023-04-09T10:11:58.597Z,58.10
2023-04-09T10:14:25.077Z,58.00
2023-04-09T10:16:51.601Z,58.00
2023-04-09T10:19:18.086Z,58.00
2023-04-09T10:21:44.647Z,58.00
2023-04-09T10:24:11.144Z,57.80
2023-04-09T10:26:37.628Z,57.80
2023-04-09T10:29:04.111Z,57.80
2023-04-09T10:31:30.613Z,57.80
2023-04-09T10:33:57.125Z,57.80
2023-04-09T10:36:23.636Z,57.80
2023-04-09T10:38:50.211Z,57.70
2023-04-09T10:41:16.731Z,57.70
2023-04-09T10:43:43.206Z,57.60
2023-04-09T10:46:09.726Z,57.60
2023-04-09T10:48:36.240Z,57.70
2023-04-09T10:51:02.911Z,57.70
2023-04-09T10:53:29.418Z,57.60
2023-04-09T10:55:55.926Z,57.50
2023-04-09T10:58:22.417Z,57.60
2023-04-09T11:00:48.888Z,57.60
2023-04-09T11:03:16.783Z,57.60
2023-04-09T11:05:43.386Z,57.60
2023-04-09T11:08:09.893Z,57.50
2023-04-09T11:10:36.379Z,57.50
2023-04-09T11:13:02.847Z,57.50
2023-04-09T11:15:29.325Z,57.50
2023-04-09T11:17:55.850Z,57.50
2023-04-09T11:20:22.398Z,57.50
2023-04-09T11:22:48.886Z,57.50
2023-04-09T11:25:15.360Z,57.50
2023-04-09T11:27:41.846Z,57.50
2023-04-09T11:30:08.322Z,57.30
2023-04-09T11:32:34.857Z,57.30
2023-04-09T11:35:01.434Z,57.30
2023-04-09T11:37:27.953Z,57.30
2023-04-09T11:39:55.615Z,57.30
2023-04-09T11:42:23.855Z,57.20
2023-04-09T11:44:50.344Z,57.20
2023-04-09T11:47:16.816Z,57.10
2023-04-09T11:49:43.254Z,57.20
2023-04-09T11:52:09.724Z,57.10
2023-04-09T11:54:36.202Z,57.00
2023-04-09T11:57:02.681Z,57.00
2023-04-09T11:59:29.148Z,57.00
2023-04-09T12:01:55.672Z,56.90
2023-04-09T12:04:22.255Z,57.00
2023-04-09T12:06:48.765Z,57.00
2023-04-09T12:09:15.268Z,57.00
2023-04-09T12:11:41.757Z,56.90
2023-04-09T12:14:08.249Z,56.90
2023-04-09T12:16:34.796Z,56.90
2023-04-09T12:19:01.311Z,56.90
2023-04-09T12:21:27.811Z,56.90
2023-04-09T12:23:54.294Z,56.80
2023-04-09T12:26:20.752Z,56.80
2023-04-09T12:28:47.265Z,56.80
2023-04-09T12:31:13.735Z,56.80
2023-04-09T12:33:40.205Z,56.80
2023-04-09T12:36:06.762Z,56.80
2023-04-09T12:38:33.300Z,56.80
2023-04-09T12:40:59.757Z,56.80
2023-04-09T12:43:26.236Z,56.80
2023-04-09T12:45:52.856Z,56.70
2023-04-09T12:48:19.406Z,56.60
2023-04-09T12:50:45.899Z,56.60
2023-04-09T12:53:12.360Z,56.60
2023-04-09T12:55:40.356Z,56.60
2023-04-09T12:58:08.042Z,56.50
2023-04-09T13:00:34.523Z,56.60
2023-04-09T13:03:01.097Z,56.50
2023-04-09T13:05:27.653Z,56.60
2023-04-09T13:07:54.119Z,56.60
2023-04-09T13:10:20.593Z,56.60
2023-04-09T13:12:47.072Z,56.50
2023-04-09T13:15:13.590Z,56.50
2023-04-09T13:17:40.132Z,56.60
2023-04-09T13:20:06.646Z,56.60
2023-04-09T13:22:33.139Z,56.60
2023-04-09T13:24:59.627Z,56.60
2023-04-09T13:27:26.120Z,56.50
2023-04-09T13:29:52.604Z,56.50
2023-04-09T13:32:19.145Z,56.50
2023-04-09T13:34:45.666Z,56.50
2023-04-09T13:37:12.124Z,56.50
2023-04-09T13:39:38.621Z,56.50
2023-04-09T13:42:12.736Z,56.50
2023-04-09T13:44:40.338Z,56.50
2023-04-09T13:47:06.810Z,56.40
2023-04-09T13:49:33.296Z,56.50
2023-04-09T13:51:59.779Z,56.50
2023-04-09T13:54:26.276Z,56.50
2023-04-09T13:56:52.730Z,56.50
2023-04-09T13:59:19.258Z,56.40
2023-04-09T14:01:45.838Z,56.40
2023-04-09T14:04:12.431Z,56.40
2023-04-09T14:06:38.986Z,56.40
2023-04-09T14:09:05.459Z,56.50
2023-04-09T14:11:31.944Z,56.50
2023-04-09T14:13:58.423Z,56.40
2023-04-09T14:16:24.976Z,56.40
2023-04-09T14:18:51.708Z,56.50
2023-04-09T14:21:18.480Z,56.60
2023-04-09T14:23:44.954Z,56.50
2023-04-09T14:26:11.418Z,56.50
2023-04-09T14:28:37.895Z,56.30
2023-04-09T14:31:04.438Z,56.20
2023-04-09T14:33:30.931Z,56.10
2023-04-09T14:35:57.424Z,56.20
2023-04-09T14:38:23.938Z,56.20
2023-04-09T14:40:50.488Z,56.30
2023-04-09T14:43:16.944Z,56.30
2023-04-09T14:45:43.438Z,56.10
2023-04-09T14:48:09.913Z,56.10
2023-04-09T14:50:36.386Z,56.20
2023-04-09T14:53:02.853Z,56.00
2023-04-09T14:55:29.395Z,56.00
2023-04-09T14:57:55.867Z,56.10
2023-04-09T15:00:22.378Z,56.20
2023-04-09T15:02:48.999Z,56.10
2023-04-09T15:05:15.707Z,56.20
2023-04-09T15:07:42.176Z,56.20
2023-04-09T15:10:08.651Z,56.10
2023-04-09T15:12:35.145Z,56.10
2023-04-09T15:15:01.665Z,56.10
2023-04-09T15:17:28.188Z,56.20
2023-04-09T15:19:59.039Z,56.30
2023-04-09T15:22:25.522Z,56.30
2023-04-09T15:24:51.984Z,56.30
2023-04-09T15:27:18.467Z,56.40
2023-04-09T15:29:44.951Z,56.30
2023-04-09T15:32:11.479Z,56.20
2023-04-09T15:34:38.020Z,56.20
2023-04-09T15:37:04.496Z,56.20
2023-04-09T15:39:31.076Z,56.10
2023-04-09T15:41:57.658Z,56.20
2023-04-09T15:44:24.196Z,56.20
2023-04-09T15:46:50.678Z,56.00
2023-04-09T15:49:17.149Z,56.00
2023-04-09T15:51:43.647Z,56.00
2023-04-09T15:54:10.133Z,56.00
2023-04-09T15:56:36.626Z,56.00
2023-04-09T15:59:03.100Z,56.00
2023-04-09T16:01:29.607Z,55.90
2023-04-09T16:03:58.930Z,55.80
2023-04-09T16:06:25.435Z,55.80
2023-04-09T16:08:52.055Z,55.90
2023-04-09T16:11:18.695Z,55.90
2023-04-09T16:13:45.176Z,55.90
2023-04-09T16:16:11.729Z,55.90
2023-04-09T16:18:38.198Z,56.00
2023-04-09T16:21:04.697Z,55.90
2023-04-09T16:23:31.158Z,56.20
2023-04-09T16:25:57.617Z,55.60
2023-04-09T16:28:24.105Z,55.50
2023-04-09T16:30:50.575Z,55.50
2023-04-09T16:33:17.040Z,55.50
2023-04-09T16:35:43.533Z,55.70
2023-04-09T16:38:10.033Z,55.60
2023-04-09T16:40:36.557Z,55.60
2023-04-09T16:43:03.025Z,55.70
2023-04-09T16:45:29.548Z,55.60
2023-04-09T16:47:56.044Z,55.70
2023-04-09T16:50:22.541Z,55.70
2023-04-09T16:52:49.012Z,55.90
2023-04-09T16:55:15.496Z,55.80
2023-04-09T16:57:41.986Z,55.80
2023-04-09T17:00:08.498Z,55.80
2023-04-09T17:02:35.111Z,55.80
2023-04-09T17:05:01.705Z,55.80
2023-04-09T17:07:28.210Z,55.90
2023-04-09T17:09:54.713Z,55.90
2023-04-09T17:12:21.231Z,56.00
2023-04-09T17:14:47.744Z,56.00
2023-04-09T17:17:14.351Z,56.00
2023-04-09T17:19:42.825Z,55.80
2023-04-09T17:22:09.467Z,56.00
2023-04-09T17:24:35.946Z,56.00
2023-04-09T17:27:02.438Z,56.00
2023-04-09T17:29:28.921Z,56.00
2023-04-09T17:31:55.443Z,56.00
2023-04-09T17:34:21.914Z,56.00
2023-04-09T17:36:48.414Z,56.00
2023-04-09T17:39:14.886Z,56.00
2023-04-09T17:41:41.388Z,56.00
2023-04-09T17:44:07.877Z,56.00
2023-04-09T17:46:34.421Z,55.90
2023-04-09T17:49:00.902Z,56.00
2023-04-09T17:51:27.386Z,56.00
2023-04-09T17:53:53.864Z,56.00
2023-04-09T17:56:20.365Z,56.00
2023-04-09T17:58:46.827Z,56.00
2023-04-09T18:01:13.315Z,56.00
2023-04-09T18:03:40.101Z,55.90
2023-04-09T18:06:06.818Z,55.90
2023-04-09T18:08:33.292Z,56.00
2023-04-09T18:11:12.001Z,56.00
2023-04-09T18:13:39.889Z,56.00
2023-04-09T18:16:06.401Z,55.90
2023-04-09T18:18:32.897Z,55.90
2023-04-09T18:20:59.372Z,55.90
2023-04-09T18:23:25.863Z,55.90
2023-04-09T18:25:52.347Z,55.80
2023-04-09T18:28:18.836Z,55.80
2023-04-09T18:30:45.318Z,55.80
2023-04-09T18:33:11.796Z,55.80
2023-04-09T18:35:38.265Z,55.80
2023-04-09T18:38:04.775Z,55.80
2023-04-09T18:40:35.067Z,55.70
2023-04-09T18:43:01.554Z,55.80
2023-04-09T18:45:28.025Z,55.70
2023-04-09T18:47:54.565Z,55.80
2023-04-09T18:50:21.101Z,55.60
2023-04-09T18:52:47.587Z,55.60
2023-04-09T18:55:14.086Z,55.60
2023-04-09T18:57:40.568Z,56.20
2023-04-09T19:00:07.041Z,55.60
2023-04-09T19:02:33.701Z,55.60
2023-04-09T19:05:00.441Z,55.50
2023-04-09T19:07:27.028Z,55.50
2023-04-09T19:09:53.507Z,55.50
2023-04-09T19:12:19.996Z,55.40
2023-04-09T19:14:46.482Z,55.50
2023-04-09T19:17:12.952Z,55.40
2023-04-09T19:19:39.412Z,55.30
2023-04-09T19:22:05.892Z,55.30
2023-04-09T19:24:32.398Z,55.40
2023-04-09T19:26:58.882Z,55.40
2023-04-09T19:29:25.400Z,55.40
2023-04-09T19:31:51.925Z,55.30
2023-04-09T19:34:18.498Z,55.30
2023-04-09T19:36:44.985Z,55.30
2023-04-09T19:39:11.471Z,55.40
2023-04-09T19:41:37.953Z,55.30
2023-04-09T19:44:04.446Z,55.30
2023-04-09T19:46:30.957Z,55.30
2023-04-09T19:48:57.449Z,55.30
2023-04-09T19:51:23.934Z,55.20
2023-04-09T19:53:50.419Z,55.30
2023-04-09T19:56:16.885Z,55.20
2023-04-09T19:58:43.391Z,55.20
2023-04-09T20:01:09.989Z,55.30
2023-04-09T20:03:36.599Z,55.20
2023-04-09T20:06:03.109Z,55.20
2023-04-09T20:08:29.597Z,55.20
2023-04-09T20:10:56.086Z,55.20
2023-04-09T20:13:22.580Z,55.10
2023-04-09T20:15:49.040Z,55.20
2023-04-09T20:18:15.530Z,55.20
2023-04-09T20:20:42.008Z,55.10
2023-04-09T20:23:08.503Z,55.10
2023-04-09T20:25:35.025Z,55.00
2023-04-09T20:28:01.571Z,55.10
2023-04-09T20:30:28.057Z,55.10
2023-04-09T20:32:54.553Z,55.10
2023-04-09T20:35:21.094Z,55.10
2023-04-09T20:37:47.560Z,55.00
2023-04-09T20:40:14.048Z,54.90
2023-04-09T20:42:40.528Z,54.90
2023-04-09T20:45:07.015Z,55.00
2023-04-09T20:47:33.531Z,54.90
2023-04-09T20:50:00.035Z,54.90
2023-04-09T20:52:26.550Z,55.00
2023-04-09T20:54:53.028Z,55.00
2023-04-09T20:57:19.497Z,55.00
2023-04-09T20:59:45.963Z,54.90
2023-04-09T21:02:12.492Z,54.80
2023-04-09T21:04:39.012Z,54.90
2023-04-09T21:07:05.478Z,54.80
2023-04-09T21:09:31.959Z,54.70
2023-04-09T21:11:58.456Z,54.80
2023-04-09T21:14:24.979Z,54.90
2023-04-09T21:16:51.510Z,54.70
2023-04-09T21:19:18.008Z,54.70
2023-04-09T21:21:44.522Z,54.70
2023-04-09T21:24:11.022Z,54.60
2023-04-09T21:26:50.115Z,54.50
2023-04-09T21:29:17.905Z,54.60
2023-04-09T21:31:44.375Z,54.50
2023-04-09T21:34:10.877Z,54.60
2023-04-09T21:36:37.356Z,54.60
2023-04-09T21:39:03.863Z,54.50
2023-04-09T21:41:30.356Z,54.50
2023-04-09T21:43:56.895Z,54.40
2023-04-09T21:46:23.401Z,54.40
2023-04-09T21:48:49.941Z,54.40
2023-04-09T21:51:16.437Z,54.20
2023-04-09T21:53:42.946Z,54.40
2023-04-09T21:56:09.446Z,54.40
2023-04-09T21:58:35.948Z,54.30
2023-04-09T22:01:02.470Z,54.30
2023-04-09T22:03:29.238Z,54.20
2023-04-09T22:05:55.896Z,54.80
2023-04-09T22:08:22.363Z,54.30
2023-04-09T22:10:48.857Z,54.20
2023-04-09T22:13:15.340Z,54.20
2023-04-09T22:15:41.896Z,54.20
2023-04-09T22:18:08.435Z,54.10
2023-04-09T22:20:34.920Z,54.20
2023-04-09T22:23:01.399Z,54.20
2023-04-09T22:25:27.883Z,54.90
2023-04-09T22:27:54.325Z,54.20
2023-04-09T22:30:20.802Z,54.20
2023-04-09T22:32:47.313Z,54.10
2023-04-09T22:35:13.817Z,54.10
2023-04-09T22:37:40.301Z,54.10
2023-04-09T22:40:06.815Z,54.10
2023-04-09T22:42:33.322Z,54.00
2023-04-09T22:45:05.262Z,53.90
2023-04-09T22:47:31.754Z,54.00
2023-04-09T22:49:58.250Z,53.90
2023-04-09T22:52:24.717Z,54.00
2023-04-09T22:54:51.214Z,53.90
2023-04-09T22:57:17.680Z,54.00
2023-04-09T22:59:44.172Z,53.90
2023-04-09T23:02:10.749Z,53.90
2023-04-09T23:04:37.316Z,54.00
2023-04-09T23:07:03.811Z,53.80
2023-04-09T23:09:30.294Z,53.80
2023-04-09T23:11:56.766Z,53.80
2023-04-09T23:14:23.298Z,53.70
2023-04-09T23:16:49.771Z,53.80
2023-04-09T23:19:16.245Z,53.90
2023-04-09T23:21:42.723Z,53.70
2023-04-09T23:24:09.192Z,53.80
2023-04-09T23:26:41.281Z,53.80
2023-04-09T23:29:07.760Z,53.50
2023-04-09T23:31:34.322Z,53.50
2023-04-09T23:34:00.847Z,53.70
2023-04-09T23:36:27.334Z,53.50
2023-04-09T23:38:53.826Z,53.50
2023-04-09T23:41:20.300Z,53.40
2023-04-09T23:43:46.808Z,53.30
2023-04-09T23:46:13.297Z,53.40
2023-04-09T23:48:39.779Z,53.30
2023-04-09T23:51:06.259Z,53.40
2023-04-09T23:53:32.748Z,53.30
2023-04-09T23:55:59.228Z,53.30
2023-04-09T23:58:25.720Z,53.30
